CYGK

Kingston Norman Rogers Airport

Kingston, Ontario, Canada
METAR CYGK 240300Z 03010G16KT 15SM FEW140 09/07 A3038 RMK AC2 LAST STFD OBS/NEXT 241000 UTC SLP290
Observed Flight Rules
Sep-24 @ 03:00 UTC (46 minutes ago) Visual Flight Rules
Wind Visibility Clouds
30° at 10 knots
 Gusting to 16 knots
15 miles
  • Few at 14,000' AGL
Temperatures Readings
Current 9°C / 48°F
Dewpoint 7°C / 45°F
Humidity 87%
Altimeter 30.38" Hg
Pressure 1029 hPa
Elevation 93
METAR CYGK 240300Z 03010G16KT 15SM FEW140 09/07 A3038 RMK AC2 LAST STFD OBS/NEXT 241000 UTC SLP290
Observed Flight Rules
Sep-24 @ 03:00 UTC
(46 minutes ago)
VFR
Wind Visibility
30° at 10 knots
 Gusting to 16 knots
15 miles
Clouds
  • Few at 14,000' AGL
Temperature Dewpoint
9°C / 48°F 7°C / 45°F
Humidity Altimeter Pressure
87% 30.38" Hg 1029 hPa